Date,TemperatureHighF,TemperatureAvgF,TemperatureLowF,DewpointHighF,DewpointAvgF,DewpointLowF,HumidityHigh,HumidityAvg,HumidityLow,PressureMaxIn,PressureMinIn,WindSpeedMaxMPH,WindSpeedAvgMPH,GustSpeedMaxMPH,PrecipitationSumIn
2013-1-1,27.0,14.2,5.0,11.0,5.4,-2.0,85,69,45,0.00,40.00,6,3,11,0.01
2013-1-2,29.0,14.8,5.0,9.0,2.4,-3.0,74,59,41,0.00,40.00,9,4,10,0.01
2013-1-3,28.0,14.0,5.0,2.0,-4.3,-10.0,63,45,29,0.00,40.00,7,5,11,0.00
2013-1-4,30.0,16.5,7.0,7.0,-1.9,-7.0,62,44,32,0.00,40.00,8,4,11,0.00
2013-1-5,34.0,18.6,7.0,6.0,-0.9,-7.0,56,43,27,0.00,40.00,7,2,9,0.00
2013-1-6,33.0,20.5,10.0,7.0,2.0,-3.0,56,45,32,0.00,40.00,6,3,9,0.00
2013-1-7,43.0,23.6,16.0,14.0,3.5,-1.0,54,42,25,0.00,40.00,9,4,12,0.00
2013-1-8,39.0,26.2,16.0,18.0,9.8,1.0,69,50,38,0.00,40.00,8,4,13,0.00
2013-1-9,39.0,27.6,21.0,18.0,13.3,10.0,68,55,42,0.00,40.00,8,4,10,0.00
2013-1-10,39.0,31.3,24.0,22.0,15.2,11.0,60,51,32,0.00,40.00,20,10,41,0.00
2013-1-11,32.0,17.8,10.0,25.0,6.5,-5.0,89,62,44,0.00,40.00,18,12,36,0.00
2013-1-12,19.0,9.4,-1.0,2.0,-5.0,-10.0,69,52,40,0.00,40.00,11,7,15,0.00
2013-1-13,14.0,5.2,-4.0,3.0,-3.5,-12.0,78,67,44,0.00,40.00,8,4,13,0.00
2013-1-14,14.0,1.6,-6.0,-9.0,-11.8,-15.0,70,54,31,0.00,40.00,8,5,15,0.00
2013-1-15,20.0,6.2,-5.0,0.0,-7.8,-17.0,63,52,41,0.00,40.00,10,5,18,0.00
2013-1-16,33.0,18.7,3.0,10.0,4.5,-3.0,78,56,37,0.00,40.00,8,5,15,0.04
2013-1-17,39.0,27.4,20.0,14.0,7.8,2.0,61,43,34,0.00,40.00,9,3,14,0.01
2013-1-18,41.0,26.5,19.0,15.0,10.2,7.0,63,51,34,0.00,40.00,6,2,11,0.01
2013-1-19,44.0,27.0,16.0,16.0,9.9,2.0,65,50,30,0.00,40.00,6,3,10,0.00
2013-1-20,43.0,27.2,15.0,14.0,7.3,0.0,64,44,28,0.00,40.00,7,3,9,0.00
2013-1-21,49.0,30.4,20.0,16.0,6.5,0.0,50,37,18,0.00,40.00,6,3,10,0.00
2013-1-22,45.0,29.4,19.0,13.0,4.8,-2.0,51,36,21,0.00,40.00,8,4,9,0.00
2013-1-23,43.0,31.5,25.0,14.0,7.3,1.0,51,36,25,0.00,40.00,6,3,8,0.00
2013-1-24,44.0,32.6,27.0,30.0,16.8,7.0,86,54,34,0.00,40.00,7,3,10,0.00
2013-1-25,38.0,33.8,30.0,34.0,31.7,27.0,97,92,84,0.00,40.00,4,2,6,0.04
2013-1-26,44.0,35.2,32.0,38.0,33.7,31.0,97,95,78,0.00,40.00,5,2,8,0.18
2013-1-27,45.0,36.5,31.0,35.0,31.0,27.0,97,82,56,0.00,40.00,11,6,23,0.14
2013-1-28,38.0,28.4,13.0,29.0,22.7,9.0,92,80,54,0.00,40.00,12,7,27,0.17
2013-1-29,29.0,16.1,7.0,14.0,8.6,2.0,84,73,51,0.00,40.00,7,5,14,0.09
2013-1-30,34.0,23.5,11.0,18.0,11.7,4.0,82,61,45,0.00,40.00,13,9,24,0.01
2013-1-31,42.0,35.4,25.0,21.0,18.3,16.0,67,50,39,0.00,40.00,12,7,19,0.01
2013-2-1,44.0,31.5,19.0,23.0,17.8,14.0,83,58,38,0.00,40.00,13,6,23,0.01
2013-2-2,46.0,31.2,20.0,23.0,16.6,10.0,73,56,30,0.00,40.00,8,3,13,0.00
2013-2-3,38.0,29.2,23.0,23.0,17.2,8.0,89,61,44,0.00,40.00,5,2,13,0.00
2013-2-4,42.0,28.3,20.0,28.0,20.1,13.0,86,73,51,0.00,40.00,7,4,13,0.00
2013-2-5,50.0,33.2,22.0,25.0,17.0,11.0,78,53,31,0.00,40.00,7,3,10,0.00
2013-2-6,47.0,33.8,26.0,25.0,19.5,13.0,78,57,37,0.00,40.00,9,5,18,0.00
2013-2-7,44.0,31.8,22.0,24.0,18.7,13.0,82,60,39,0.00,40.00,9,4,15,0.00
2013-2-8,45.0,36.0,28.0,27.0,19.6,13.0,94,54,35,0.00,40.00,17,9,38,0.00
2013-2-9,33.0,26.8,21.0,26.0,19.9,14.0,92,76,51,0.00,40.00,10,4,16,0.14
2013-2-10,29.0,22.0,16.0,22.0,15.7,12.0,88,77,58,0.00,40.00,10,5,16,0.01
2013-2-11,29.0,19.2,8.0,20.0,13.5,4.0,90,79,57,0.00,40.00,9,4,14,0.16
2013-2-12,34.0,17.6,5.0,13.0,6.4,-1.0,84,64,36,0.00,40.00,7,4,12,0.01
2013-2-13,40.0,24.0,11.0,19.0,10.8,4.0,75,58,35,0.00,40.00,7,4,12,0.01
2013-2-14,40.0,28.3,20.0,19.0,14.9,12.0,75,58,39,0.00,40.00,7,4,13,0.00
2013-2-15,42.0,28.2,17.0,18.0,11.5,7.0,76,52,29,0.00,40.00,7,4,12,0.00
2013-2-16,45.0,30.3,18.0,20.0,13.2,7.0,66,50,34,0.00,40.00,7,4,10,0.00
2013-2-17,45.0,33.1,23.0,19.0,14.3,6.0,64,47,30,0.00,40.00,11,5,22,0.00
2013-2-18,36.0,24.3,12.0,8.0,4.7,1.0,66,44,25,0.00,40.00,9,5,19,0.00
2013-2-19,45.0,30.7,18.0,13.0,4.6,-5.0,50,34,18,0.00,40.00,12,4,25,0.00
2013-2-20,43.0,34.0,27.0,24.0,13.9,8.0,68,44,29,0.00,40.00,10,5,19,0.00
2013-2-21,39.0,29.5,24.0,24.0,19.9,18.0,91,68,43,0.00,40.00,10,4,17,0.00
2013-2-22,30.0,23.1,17.0,21.0,14.9,6.0,90,72,46,0.00,40.00,10,4,15,0.12
2013-2-23,36.0,23.3,15.0,22.0,13.4,5.0,90,67,44,0.00,40.00,12,6,27,0.01
2013-2-24,27.0,18.6,11.0,17.0,10.5,4.0,79,70,65,0.00,40.00,11,6,20,0.10
2013-2-25,37.0,22.6,10.0,16.0,8.8,3.0,75,57,33,0.00,40.00,9,5,13,0.01
2013-2-26,29.0,21.9,13.0,19.0,12.2,4.0,90,67,46,0.00,40.00,10,6,17,0.09
2013-2-27,37.0,21.2,11.0,11.0,6.1,3.0,74,55,25,0.00,40.00,7,5,13,0.01
2013-2-28,42.0,26.9,14.0,14.0,7.1,2.0,63,44,26,0.00,40.00,9,5,13,0.00
2013-3-1,49.0,37.0,26.0,23.0,17.1,5.0,66,45,35,0.00,40.00,8,4,12,0.00
2013-3-2,52.0,39.2,28.0,27.0,22.9,18.0,70,53,37,0.00,40.00,7,4,10,0.00
2013-3-3,52.0,41.8,34.0,32.0,24.2,20.0,80,51,33,0.00,40.00,13,6,23,0.00
2013-3-4,46.0,35.4,19.0,33.0,23.5,4.0,89,64,29,0.00,40.00,15,10,30,0.04
2013-3-5,46.0,31.9,18.0,16.0,6.6,-4.0,55,35,21,0.00,40.00,7,4,10,0.01
2013-3-6,55.0,45.7,33.0,22.0,15.6,9.0,38,30,23,0.00,40.00,13,7,29,0.00
2013-3-7,57.0,47.4,39.0,20.0,15.6,11.0,41,29,16,0.00,40.00,12,8,24,0.00
2013-3-8,45.0,40.3,34.0,32.0,21.9,12.0,89,51,27,0.00,40.00,15,7,28,0.00
2013-3-9,36.0,30.5,24.0,28.0,23.5,14.0,92,76,63,0.00,40.00,12,6,23,0.06
2013-3-10,43.0,31.5,20.0,19.0,15.2,12.0,72,53,35,0.00,40.00,9,4,17,0.03
2013-3-11,47.0,37.8,28.0,22.0,19.2,17.0,66,48,37,0.00,40.00,11,7,20,0.00
2013-3-12,52.0,42.6,36.0,27.0,24.2,22.0,60,49,36,0.00,40.00,10,5,16,0.00
2013-3-13,57.0,45.7,33.0,28.0,24.5,18.0,68,45,27,0.00,40.00,8,4,12,0.00
2013-3-14,65.0,50.3,38.0,31.0,22.4,18.0,50,35,19,0.00,40.00,8,5,16,0.00
2013-3-15,64.0,53.2,43.0,27.0,22.0,18.0,44,30,20,0.00,40.00,9,5,21,0.00
2013-3-16,58.0,50.8,43.0,30.0,24.8,17.0,50,37,20,0.00,40.00,12,6,28,0.00
2013-3-17,51.0,43.6,33.0,26.0,16.0,3.0,61,35,18,0.00,40.00,20,11,39,0.00
2013-3-18,47.0,37.3,26.0,12.0,9.7,8.0,50,33,20,0.00,40.00,17,8,30,0.00
2013-3-19,50.0,39.1,32.0,14.0,7.3,-2.0,47,29,11,0.00,40.00,8,4,17,0.00
2013-3-20,52.0,41.5,32.0,21.0,11.6,3.0,39,29,23,0.00,40.00,10,5,23,0.00
2013-3-21,47.0,40.5,29.0,33.0,17.8,1.0,93,46,16,0.00,40.00,20,9,37,0.11
2013-3-22,45.0,34.4,26.0,11.0,4.9,-2.0,49,30,16,0.00,40.00,18,8,31,0.01
2013-3-23,30.0,21.8,15.0,10.0,0.9,-5.0,60,41,27,0.00,40.00,12,6,25,0.00
2013-3-24,34.0,23.0,14.0,8.0,3.0,-1.0,61,43,25,0.00,40.00,8,5,20,0.00
2013-3-25,42.0,27.4,14.0,8.0,2.3,0.0,54,36,18,0.00,40.00,7,5,15,0.00
2013-3-26,57.0,40.6,26.0,14.0,12.0,8.0,49,33,18,0.00,40.00,12,5,24,0.00
2013-3-27,61.0,46.5,34.0,19.0,14.3,9.0,46,30,13,0.00,40.00,12,6,21,0.00
2013-3-28,63.0,56.5,47.0,18.0,15.4,11.0,29,20,14,0.00,40.00,12,8,21,0.00
2013-3-29,64.0,52.8,43.0,28.0,21.1,15.0,49,30,18,0.00,40.00,10,7,22,0.00
2013-3-30,63.0,49.7,39.0,31.0,25.1,22.0,57,40,21,0.00,40.00,15,5,25,0.00
2013-3-31,64.0,52.1,40.0,28.0,20.7,14.0,48,31,14,0.00,40.00,10,7,20,0.00
2013-4-1,61.0,49.2,38.0,40.0,26.8,11.0,71,44,14,0.00,40.00,15,7,27,0.04
2013-4-2,47.0,39.3,34.0,36.0,30.4,24.0,88,71,57,0.00,40.00,10,5,20,0.11
2013-4-3,59.0,44.8,31.0,32.0,27.0,22.0,88,55,25,0.00,40.00,9,5,16,0.04
2013-4-4,65.0,52.0,38.0,26.0,21.7,17.0,53,32,19,0.00,40.00,12,6,22,0.00
2013-4-5,64.0,54.8,44.0,30.0,21.4,14.0,52,28,20,0.00,40.00,15,8,31,0.00
2013-4-6,59.0,46.7,36.0,32.0,22.8,17.0,66,42,20,0.00,40.00,9,5,29,0.00
2013-4-7,60.0,49.4,38.0,30.0,21.6,10.0,64,36,17,0.00,40.00,17,8,29,0.00
2013-4-8,53.0,44.3,35.0,36.0,23.1,10.0,95,50,21,0.00,40.00,17,10,42,0.16
2013-4-9,37.0,28.4,16.0,31.0,20.3,9.0,92,72,54,0.00,40.00,12,6,25,0.02
2013-4-10,40.0,27.0,11.0,18.0,11.4,5.0,86,55,28,0.00,40.00,9,6,20,0.02
2013-4-11,51.0,38.2,28.0,33.0,24.2,13.0,79,57,47,0.00,40.00,9,5,18,0.01
2013-4-12,59.0,46.4,38.0,27.0,19.8,8.0,64,38,14,0.00,40.00,10,6,16,0.00
2013-4-13,62.0,51.8,41.0,32.0,15.9,3.0,50,25,17,0.00,40.00,20,12,44,0.00
2013-4-14,50.0,41.1,29.0,37.0,18.3,5.0,93,47,17,0.00,40.00,14,6,28,0.11
2013-4-15,39.0,34.7,32.0,33.0,26.1,12.0,94,75,33,0.00,40.00,11,5,22,0.36
2013-4-16,44.0,36.7,28.0,36.0,30.8,26.0,95,80,55,0.00,40.00,10,6,24,0.27
2013-4-17,30.0,24.6,14.0,26.0,18.5,6.0,95,78,61,0.00,40.00,9,6,18,0.08
2013-4-18,35.0,23.8,12.0,15.0,11.3,6.0,78,60,42,0.00,40.00,8,5,17,0.02
2013-4-19,48.0,34.5,21.0,23.0,16.5,10.0,64,49,33,0.00,40.00,11,6,21,0.02
2013-4-20,50.0,40.5,33.0,35.0,29.1,23.0,86,65,46,0.00,40.00,9,5,22,0.00
2013-4-21,57.0,45.4,32.0,29.0,22.2,13.0,81,44,18,0.00,40.00,11,6,21,0.00
2013-4-22,61.0,50.8,41.0,27.0,20.8,16.0,50,31,19,0.00,40.00,18,9,33,0.00
2013-4-23,45.0,36.7,27.0,22.0,10.9,1.0,64,37,16,0.00,40.00,12,7,23,0.00
2013-4-24,53.0,42.2,32.0,11.0,7.0,2.0,34,24,15,0.00,40.00,8,5,25,0.00
2013-4-25,63.0,49.1,34.0,18.0,12.0,9.0,39,23,14,0.00,40.00,13,6,22,0.00
2013-4-26,64.0,51.8,37.0,16.0,12.1,8.0,33,22,11,0.00,40.00,8,5,18,0.00
2013-4-27,68.0,55.3,40.0,17.0,11.5,7.0,29,18,10,0.00,40.00,9,6,18,0.00
2013-4-28,73.0,60.3,44.0,22.0,16.5,7.0,29,18,13,0.00,40.00,11,7,24,0.00
2013-4-29,71.0,61.8,50.0,25.0,21.3,18.0,32,22,14,0.00,40.00,15,8,28,0.00
2013-4-30,71.0,63.8,49.0,32.0,23.8,18.0,51,23,17,0.00,40.00,15,10,29,0.02
2013-5-1,51.0,39.8,32.0,36.0,18.1,2.0,98,50,15,0.00,40.00,13,7,26,0.22
2013-5-2,52.0,37.7,24.0,18.0,10.4,6.0,60,36,16,0.00,40.00,12,5,21,0.01
2013-5-3,62.0,47.2,32.0,17.0,10.0,3.0,37,23,13,0.00,40.00,8,6,18,0.00
2013-5-4,68.0,54.9,43.0,21.0,11.9,2.0,32,18,13,0.00,40.00,9,5,18,0.00
2013-5-5,68.0,59.4,50.0,21.0,14.1,10.0,24,17,12,0.00,40.00,17,8,30,0.00
2013-5-6,60.0,48.4,40.0,42.0,33.7,19.0,94,61,23,0.00,40.00,15,6,38,0.24
2013-5-7,50.0,43.5,36.0,44.0,38.4,34.0,95,83,65,0.00,40.00,10,5,22,0.25
2013-5-8,49.0,41.5,35.0,42.0,38.3,34.0,99,89,71,0.00,40.00,9,4,20,0.43
2013-5-9,59.0,47.9,40.0,42.0,39.1,31.0,99,75,42,0.00,40.00,11,5,21,0.15
2013-5-10,64.0,52.8,41.0,38.0,31.8,-99.9,75,49,27,0.00,40.00,15,6,27,0.01
2013-5-11,70.0,58.0,44.0,36.0,28.9,23.0,55,35,18,0.00,40.00,8,6,16,0.00
2013-5-12,75.0,62.8,48.0,35.0,29.8,26.0,46,29,20,0.00,40.00,9,6,18,0.00
2013-5-13,79.0,66.7,53.0,37.0,31.0,28.0,40,27,16,0.00,40.00,10,6,20,0.00
2013-5-14,81.0,69.4,58.0,40.0,32.4,28.0,39,26,16,0.00,40.00,11,8,21,0.00
2013-5-15,78.0,66.2,54.0,39.0,34.8,26.0,54,33,16,0.00,40.00,12,6,28,0.00
2013-5-16,77.0,61.2,51.0,38.0,15.0,-99.9,55,28,14,0.00,40.00,12,7,24,0.00
2013-5-17,72.0,63.2,53.0,28.0,16.9,-99.9,33,20,13,0.00,40.00,11,8,23,0.00
2013-5-18,63.0,55.3,43.0,35.0,31.0,25.0,63,41,23,0.00,40.00,14,8,27,0.00
2013-5-19,61.0,49.5,39.0,32.0,28.7,26.0,67,46,27,0.00,40.00,14,6,23,0.00
2013-5-20,58.0,47.9,36.0,37.0,32.5,29.0,76,56,39,0.00,40.00,13,5,21,0.00
2013-5-21,67.0,55.7,39.0,35.0,30.4,22.0,76,42,20,0.00,40.00,9,6,19,0.00
2013-5-22,78.0,64.7,53.0,26.0,22.4,18.0,32,21,12,0.00,40.00,11,9,32,0.00
2013-5-23,78.0,68.0,55.0,24.0,15.3,4.0,23,14,7,0.00,40.00,19,10,35,0.00
2013-5-24,75.0,65.3,48.0,18.0,13.0,8.0,24,13,10,0.00,40.00,14,8,26,0.00
2013-5-25,79.0,65.1,51.0,19.0,13.6,9.0,21,14,8,0.00,40.00,14,8,26,0.00
2013-5-26,79.0,66.9,55.0,19.0,13.6,7.0,18,13,8,0.00,40.00,10,8,30,0.00
2013-5-27,75.0,64.9,53.0,22.0,15.2,7.0,21,15,12,0.00,40.00,11,8,24,0.00
2013-5-28,72.0,61.1,44.0,42.0,23.5,15.0,91,27,15,0.00,40.00,15,10,36,0.16
2013-5-29,61.0,51.6,42.0,40.0,31.7,20.0,85,51,23,0.00,40.00,13,10,28,0.16
2013-5-30,67.0,55.9,45.0,28.0,23.4,16.0,43,30,15,0.00,40.00,18,10,34,0.00
2013-5-31,69.0,57.0,48.0,25.0,16.8,0.0,38,23,7,0.00,40.00,14,7,26,0.00
2013-6-1,70.0,56.9,39.0,25.0,20.4,10.0,42,25,16,0.00,40.00,10,6,20,0.00
2013-6-2,81.0,67.0,47.0,26.0,20.0,14.0,31,18,8,0.00,40.00,12,7,24,0.00
2013-6-3,84.0,73.6,65.0,26.0,19.9,14.0,19,13,10,0.00,40.00,16,10,30,0.00
2013-6-4,83.0,69.6,53.0,32.0,25.1,21.0,31,20,11,0.00,40.00,15,8,35,0.00
2013-6-5,79.0,66.8,53.0,30.0,26.3,22.0,34,23,14,0.00,40.00,9,5,21,0.00
2013-6-6,82.0,68.1,53.0,29.0,25.4,20.0,32,21,13,0.00,40.00,9,6,21,0.00
2013-6-7,83.0,70.6,56.0,34.0,28.7,25.0,34,22,12,0.00,40.00,10,6,30,0.00
2013-6-8,86.0,74.2,60.0,37.0,29.9,21.0,36,21,11,0.00,40.00,9,6,22,0.00
2013-6-9,89.0,75.3,55.0,33.0,26.7,18.0,41,19,8,0.00,40.00,11,6,17,0.00
2013-6-10,95.0,82.9,72.0,28.0,20.7,12.0,15,10,7,0.00,40.00,12,9,27,0.00
2013-6-11,83.0,75.1,65.0,21.0,16.4,5.0,16,11,7,0.00,40.00,16,11,35,0.00
2013-6-12,88.0,75.0,60.0,24.0,19.5,11.0,22,13,7,0.00,40.00,11,8,24,0.00
2013-6-13,86.0,77.5,68.0,30.0,24.8,-2.0,21,15,7,0.00,40.00,19,10,34,0.00
2013-6-14,84.0,74.1,61.0,19.0,7.8,-9.0,14,8,4,0.00,40.00,12,8,27,0.00
2013-6-15,84.0,69.5,51.0,34.0,20.9,8.0,28,17,9,0.00,40.00,14,8,35,0.01
2013-6-16,85.0,73.3,63.0,40.0,30.8,19.0,42,23,10,0.00,40.00,14,9,31,0.01
2013-6-17,87.0,73.7,59.0,29.0,21.3,14.0,21,15,7,0.00,40.00,10,6,22,0.01
2013-6-18,87.0,76.6,64.0,23.0,13.9,3.0,19,10,5,0.00,40.00,13,8,28,0.00
2013-6-19,85.0,74.8,63.0,17.0,8.5,1.0,13,8,4,0.00,40.00,18,11,40,0.00
2013-6-20,82.0,66.7,52.0,13.0,7.2,-2.0,16,10,7,0.00,40.00,12,8,26,0.00
2013-6-22,83.0,76.6,63.0,19.0,14.9,12.0,16,10,7,0.00,40.00,17,9,31,0.00
2013-6-23,84.0,71.7,53.0,22.0,18.1,10.0,24,14,8,0.00,40.00,10,6,22,0.00
2013-6-24,81.0,71.3,63.0,25.0,17.8,11.0,19,13,10,0.00,40.00,16,10,34,0.00
2013-6-25,83.0,72.0,60.0,35.0,28.8,21.0,34,21,14,0.00,40.00,11,8,23,0.00
2013-6-26,92.0,78.2,65.0,34.0,30.3,27.0,27,18,11,0.00,40.00,11,8,23,0.00
2013-6-27,95.0,80.3,64.0,34.0,30.3,27.0,30,17,9,0.00,40.00,10,6,21,0.00
2013-6-28,97.0,82.1,69.0,36.0,29.9,23.0,24,16,7,0.00,40.00,18,7,29,0.00
2013-6-29,94.0,82.0,70.0,38.0,34.6,28.0,29,19,10,0.00,40.00,12,6,35,0.00
2013-6-30,93.0,79.8,66.0,40.0,35.8,30.0,32,22,12,0.00,40.00,14,7,26,0.00
2013-7-1,93.0,78.9,65.0,40.0,35.4,29.0,37,23,12,0.00,40.00,13,7,26,0.00
2013-7-2,90.0,78.9,65.0,38.0,33.3,29.0,29,20,12,0.00,40.00,13,7,26,0.00
2013-7-3,92.0,77.0,63.0,41.0,33.1,29.0,33,22,11,0.00,40.00,16,8,28,0.00
2013-7-4,88.0,77.6,65.0,41.0,38.8,37.0,35,26,17,0.00,40.00,11,6,18,0.00
2013-7-5,89.0,79.0,66.0,46.0,40.8,36.0,39,26,17,0.00,40.00,15,9,35,0.00
2013-7-6,88.0,75.1,67.0,45.0,42.4,38.0,42,32,18,0.00,40.00,15,8,35,0.00
2013-7-7,91.0,75.7,60.0,56.0,43.6,40.0,87,35,18,0.00,40.00,13,7,47,0.14
2013-7-8,90.0,73.0,58.0,52.0,44.2,33.0,77,42,14,0.00,40.00,15,7,25,0.14
2013-7-9,93.0,81.1,70.0,41.0,35.6,27.0,31,21,12,0.00,40.00,11,7,23,0.00
2013-7-10,95.0,82.9,68.0,31.0,23.4,-99.9,21,12,7,0.00,40.00,11,7,23,0.00
2013-7-11,93.0,77.5,62.0,57.0,43.7,22.0,85,35,13,0.00,40.00,15,9,31,0.06
2013-7-12,85.0,71.9,59.0,55.0,50.4,43.0,76,51,24,0.00,40.00,12,6,22,0.06
2013-7-13,88.0,72.8,59.0,57.0,50.5,42.0,88,51,21,0.00,40.00,16,6,36,0.05
2013-7-14,86.0,73.8,59.0,52.0,47.0,40.0,68,41,22,0.00,40.00,12,6,24,0.00
2013-7-15,91.0,77.7,67.0,49.0,45.1,40.0,46,33,18,0.00,40.00,10,6,20,0.00
2013-7-16,83.0,77.7,72.0,58.0,53.0,50.0,54,43,34,0.00,40.00,13,7,26,0.57
2013-7-17,84.0,72.3,59.0,59.0,54.4,49.0,93,56,34,0.00,40.00,13,6,26,0.07
2013-7-18,86.0,73.6,59.0,54.0,51.1,46.0,82,48,26,0.00,40.00,12,6,32,0.00
2013-7-19,88.0,74.6,59.0,54.0,47.6,40.0,77,43,19,0.00,40.00,9,5,18,0.00
2013-7-20,90.0,76.2,63.0,52.0,42.0,-99.9,59,33,15,0.00,40.00,11,6,19,0.00
2013-7-21,90.0,79.1,66.0,46.0,39.0,32.0,41,25,16,0.00,40.00,12,7,18,0.00
2013-7-22,92.0,80.3,68.0,45.0,36.5,25.0,40,23,9,0.00,40.00,12,6,24,0.00
2013-7-23,94.0,80.0,66.0,40.0,31.9,20.0,33,19,7,0.00,40.00,12,6,20,0.00
2013-7-24,84.0,75.1,65.0,46.0,39.4,27.0,47,29,16,0.00,40.00,9,5,20,0.00
2013-7-25,89.0,76.1,61.0,49.0,42.7,34.0,57,33,16,0.00,40.00,12,6,22,0.00
2013-7-26,90.0,77.0,62.0,45.0,35.8,24.0,42,24,12,0.00,40.00,10,6,26,0.00
2013-7-27,83.0,73.2,59.0,56.0,45.5,27.0,91,40,19,0.00,40.00,15,9,28,0.13
2013-7-28,78.0,64.4,58.0,60.0,55.7,50.0,98,76,39,0.00,40.00,9,4,21,0.35
2013-7-29,76.0,62.3,52.0,57.0,50.2,40.0,96,68,33,0.00,40.00,18,7,33,0.82
2013-7-30,83.0,69.1,54.0,52.0,42.6,31.0,75,43,15,0.00,40.00,9,6,20,0.00
2013-7-31,87.0,75.8,64.0,46.0,40.5,35.0,45,29,17,0.00,40.00,10,7,20,0.00
2013-8-1,73.0,65.4,56.0,59.0,49.4,38.0,92,63,28,0.00,40.00,13,8,31,0.39
2013-8-2,82.0,67.9,54.0,58.0,53.7,48.0,95,64,34,0.00,40.00,10,4,18,0.37
2013-8-3,85.0,72.0,59.0,55.0,50.6,46.0,73,49,27,0.00,40.00,10,6,17,0.01
2013-8-4,84.0,72.0,61.0,50.0,47.2,41.0,60,43,24,0.00,40.00,12,6,28,0.01
2013-8-5,80.0,70.4,60.0,51.0,46.0,41.0,64,43,26,0.00,40.00,11,6,21,0.00
2013-8-6,85.0,70.5,63.0,49.0,44.4,36.0,54,41,19,0.00,40.00,12,7,32,0.00
2013-8-7,79.0,65.7,57.0,49.0,45.5,42.0,73,50,29,0.00,40.00,19,6,32,0.01
2013-8-8,78.0,65.9,56.0,49.0,43.3,35.0,76,47,21,0.00,40.00,12,6,22,0.01
2013-8-9,80.0,67.6,56.0,44.0,40.2,35.0,53,38,21,0.00,40.00,10,6,18,0.00
2013-8-10,75.0,65.7,56.0,44.0,39.5,34.0,58,39,24,0.00,40.00,15,9,29,0.00
2013-8-11,81.0,66.8,51.0,46.0,40.8,36.0,70,41,21,0.00,40.00,15,6,21,0.00
2013-8-12,79.0,67.9,60.0,41.0,38.4,35.0,46,35,22,0.00,40.00,18,6,29,0.00
2013-8-13,83.0,67.9,53.0,42.0,32.1,-99.9,56,31,12,0.00,40.00,10,6,21,0.00
2013-8-14,86.0,72.2,60.0,36.0,26.3,-99.9,33,20,9,0.00,40.00,11,6,20,0.00
2013-8-15,87.0,69.5,61.0,32.0,15.7,-99.9,28,16,7,0.00,40.00,12,8,22,0.00
2013-8-16,89.0,75.2,68.0,38.0,25.5,-99.9,30,17,10,0.00,40.00,9,5,15,0.00
2013-8-17,87.0,75.2,67.0,44.0,32.6,-99.9,35,22,14,0.00,40.00,16,7,33,0.00
2013-8-18,87.0,74.7,66.0,44.0,41.8,40.0,42,32,19,0.00,40.00,13,7,26,0.00
2013-8-19,89.0,74.1,64.0,45.0,36.2,-99.9,44,30,16,0.00,40.00,12,6,17,0.00
2013-8-20,83.0,72.1,63.0,49.0,41.5,-99.9,44,35,26,0.00,40.00,10,6,21,0.00
2013-8-21,88.0,73.0,59.0,47.0,43.5,38.0,58,37,18,0.00,40.00,12,6,21,0.00
2013-8-22,81.0,71.7,65.0,48.0,45.3,43.0,48,39,31,0.00,40.00,9,6,19,0.00
2013-8-23,78.0,68.1,62.0,59.0,46.9,44.0,67,47,34,0.00,40.00,10,5,28,0.05
2013-8-24,78.0,66.0,60.0,50.0,43.1,-99.9,70,46,24,0.00,40.00,13,6,23,0.10
2013-8-25,66.0,58.2,56.0,59.0,53.7,50.0,97,86,64,0.00,40.00,6,4,14,0.68
2013-8-26,70.0,61.8,56.0,61.0,57.2,54.0,98,86,70,0.00,40.00,6,3,12,0.05
2013-8-27,72.0,61.4,57.0,62.0,56.3,54.0,95,84,62,0.00,40.00,7,4,12,0.12
2013-8-28,82.0,76.2,68.0,53.0,48.8,45.0,49,39,30,0.00,40.00,10,7,17,0.00
2013-8-29,86.0,74.1,61.0,51.0,47.0,43.0,60,40,22,0.00,40.00,11,6,18,0.00
2013-8-30,87.0,74.6,64.0,51.0,46.8,44.0,52,39,24,0.00,40.00,15,7,25,0.01
2013-8-31,83.0,72.4,65.0,53.0,47.0,-99.9,58,43,27,0.00,40.00,11,4,21,0.01
2013-9-1,83.0,71.8,59.0,54.0,50.3,45.0,64,48,34,0.00,40.00,10,6,19,0.00
2013-9-2,84.0,72.8,61.0,54.0,49.8,46.0,73,46,27,0.00,40.00,10,5,21,0.00
2013-9-3,85.0,74.6,65.0,52.0,47.6,43.0,54,40,26,0.00,40.00,10,6,20,0.00
2013-9-4,88.0,76.1,64.0,48.0,44.7,40.0,47,34,20,0.00,40.00,9,5,18,0.00
2013-9-5,88.0,75.8,66.0,47.0,45.5,42.0,47,35,24,0.00,40.00,13,5,29,0.00
2013-9-6,85.0,75.8,65.0,44.0,41.0,37.0,43,30,19,0.00,40.00,9,6,16,0.00
2013-9-7,86.0,74.3,64.0,46.0,39.6,-99.9,46,30,19,0.00,40.00,20,6,33,0.05
2013-9-8,71.0,65.1,58.0,53.0,49.1,44.0,81,57,46,0.00,40.00,11,7,24,0.04
2013-9-9,58.0,56.0,54.0,55.0,53.5,51.0,98,92,78,0.00,40.00,10,4,19,0.99
2013-9-10,60.0,56.1,53.0,57.0,54.6,52.0,99,95,87,0.00,40.00,7,3,11,0.66
2013-9-11,68.0,59.5,55.0,57.0,54.2,52.0,96,83,66,0.00,40.00,6,4,13,0.73
2013-9-12,73.0,62.7,56.0,55.0,50.3,47.0,87,65,45,0.00,40.00,8,5,21,0.45
2013-9-13,66.0,60.1,52.0,56.0,50.1,47.0,84,70,59,0.00,40.00,10,4,20,0.01
2013-9-14,64.0,55.9,52.0,55.0,49.8,-99.9,95,83,71,0.00,40.00,10,4,20,0.25
2013-9-15,70.0,57.5,50.0,55.0,50.2,47.0,92,78,49,0.00,40.00,8,4,14,0.01
2013-9-16,75.0,63.6,55.0,54.0,47.6,42.0,74,58,32,0.00,40.00,10,7,17,0.00
2013-9-17,73.0,64.9,57.0,57.0,48.7,45.0,83,57,45,0.00,40.00,11,8,23,0.06
2013-9-18,67.0,61.1,57.0,53.0,46.4,38.0,87,60,44,0.00,40.00,11,7,23,0.10
2013-9-19,70.0,57.2,45.0,46.0,29.2,19.0,78,38,14,0.00,40.00,8,4,12,0.00
2013-9-20,74.0,60.4,50.0,34.0,29.5,21.0,41,32,18,0.00,40.00,9,5,16,0.00
2013-9-21,75.0,65.4,58.0,43.0,34.2,-99.9,51,33,24,0.00,40.00,13,8,29,0.00
2013-9-22,68.0,55.6,44.0,46.0,43.8,39.0,95,68,44,0.00,40.00,17,9,34,0.45
2013-9-23,61.0,51.0,45.0,41.0,37.6,34.0,85,62,38,0.00,40.00,10,7,19,0.07
2013-9-24,69.0,56.6,43.0,43.0,35.0,24.0,66,46,25,0.00,40.00,13,6,25,0.00
2013-9-25,72.0,63.4,56.0,32.0,26.9,21.0,36,26,16,0.00,40.00,20,14,40,0.00
2013-9-26,66.0,60.7,54.0,33.0,26.8,20.0,37,28,18,0.00,40.00,16,13,39,0.00
2013-9-27,51.0,43.1,36.0,41.0,31.1,26.0,87,64,37,0.00,40.00,14,9,29,0.20
2013-9-28,56.0,41.9,31.0,28.0,23.0,-99.9,74,50,28,0.00,40.00,8,5,15,0.01
2013-9-29,66.0,51.8,39.0,30.0,23.3,15.0,53,34,21,0.00,40.00,10,5,20,0.00
2013-9-30,73.0,60.9,50.0,29.0,23.6,20.0,35,25,16,0.00,40.00,12,8,21,0.00
2013-10-1,72.0,61.3,55.0,30.0,25.0,22.0,28,25,20,0.00,40.00,10,8,16,0.00
2013-10-2,71.0,61.3,53.0,28.0,24.0,19.0,29,24,20,0.00,40.00,11,8,24,0.00
2013-10-3,64.0,54.4,31.0,43.0,28.5,22.0,97,42,25,0.00,40.00,18,10,33,0.06
2013-10-4,42.0,30.6,22.0,30.0,25.3,19.0,97,81,60,0.00,40.00,10,5,17,0.51
2013-10-5,47.0,35.4,26.0,28.0,24.1,19.0,84,65,40,0.00,40.00,7,4,15,0.01
2013-10-6,59.0,44.3,32.0,31.0,26.3,19.0,65,50,33,0.00,40.00,7,5,14,0.00
2013-10-7,62.0,49.0,37.0,38.0,31.8,22.0,67,52,37,0.00,40.00,7,4,13,0.00
2013-10-8,67.0,56.5,48.0,28.0,23.8,21.0,39,29,18,0.00,40.00,11,7,23,0.00
2013-10-9,63.0,55.8,49.0,28.0,24.0,21.0,40,29,23,0.00,40.00,18,8,35,0.00
2013-10-10,56.0,41.9,35.0,39.0,35.2,26.0,95,80,31,0.00,40.00,18,9,50,1.17
2013-10-11,51.0,42.8,38.0,35.0,32.7,30.0,87,68,50,0.00,40.00,13,10,25,0.31
2013-10-12,53.0,44.7,41.0,38.0,31.8,-99.9,73,62,47,0.00,40.00,10,6,16,0.00
2013-10-13,59.0,51.8,43.0,35.0,30.7,27.0,59,45,33,0.00,40.00,17,8,43,0.02
2013-10-14,48.0,40.8,37.0,36.0,32.9,30.0,91,74,53,0.00,40.00,11,8,22,0.27
2013-10-15,45.0,35.1,29.0,35.0,29.5,25.0,93,80,59,0.00,40.00,10,4,15,0.05
2013-10-16,47.0,34.3,25.0,25.0,22.8,21.0,88,65,37,0.00,40.00,8,3,16,0.02
2013-10-17,52.0,41.2,30.0,24.0,19.4,16.0,66,44,24,0.00,40.00,10,6,20,0.00
2013-10-18,49.0,38.8,30.0,24.0,20.0,17.0,71,48,28,0.00,40.00,9,5,17,0.00
2013-10-19,54.0,42.0,31.0,24.0,17.5,-99.9,62,40,23,0.00,40.00,10,6,18,0.00
2013-10-20,54.0,45.0,35.0,27.0,20.5,15.0,52,38,28,0.00,40.00,7,4,19,0.00
2013-10-21,56.0,44.4,34.0,27.0,22.0,19.0,63,43,23,0.00,40.00,6,4,13,0.00
2013-10-22,59.0,45.9,36.0,29.0,24.8,21.0,58,44,29,0.00,40.00,8,5,11,0.00
2013-10-23,62.0,48.4,38.0,30.0,25.0,20.0,55,41,28,0.00,40.00,9,4,11,0.00
2013-10-24,63.0,51.1,41.0,30.0,25.3,21.0,48,37,23,0.00,40.00,8,4,15,0.00
2013-10-25,58.0,50.3,42.0,33.0,29.5,24.0,57,45,34,0.00,40.00,11,6,18,0.00
2013-10-26,63.0,49.4,39.0,34.0,28.5,22.0,66,46,22,0.00,40.00,7,4,12,0.00
2013-10-27,60.0,50.3,41.0,33.0,28.3,22.0,53,43,32,0.00,40.00,10,5,17,0.00
2013-10-28,59.0,52.2,47.0,28.0,20.7,-99.9,42,31,20,0.00,40.00,22,13,41,0.00
2013-10-29,50.0,39.7,32.0,37.0,31.2,21.0,96,75,32,0.00,40.00,17,8,37,0.42
2013-10-30,39.0,33.2,28.0,33.0,29.5,27.0,96,86,69,0.00,40.00,10,5,22,0.18
2013-10-31,43.0,36.1,32.0,28.0,25.7,23.0,85,66,51,0.00,40.00,9,7,18,0.18
2013-11-1,50.0,39.8,34.0,31.0,25.8,24.0,74,58,38,0.00,40.00,10,5,18,0.00
2013-11-2,51.0,39.3,31.0,32.0,24.4,-99.9,72,57,47,0.00,40.00,8,3,10,0.00
2013-11-3,53.0,42.9,27.0,25.0,20.2,9.0,55,41,24,0.00,40.00,14,7,28,0.00
2013-11-4,36.0,28.4,22.0,23.0,12.4,4.0,87,52,34,0.00,40.00,6,3,13,0.00
2013-11-5,35.0,27.0,21.0,23.0,14.5,7.0,93,62,32,0.00,40.00,8,4,15,0.03
2013-11-6,41.0,29.4,22.0,17.0,12.1,7.0,63,49,32,0.00,40.00,9,4,15,0.01
2013-11-7,48.0,35.9,28.0,24.0,20.2,18.0,68,54,35,0.00,40.00,7,4,12,0.00
2013-11-8,55.0,42.9,29.0,25.0,19.8,15.0,64,41,27,0.00,40.00,8,4,16,0.00
2013-11-9,55.0,43.3,35.0,24.0,20.5,17.0,51,41,28,0.00,40.00,6,4,13,0.00
2013-11-10,57.0,45.1,37.0,25.0,19.5,15.0,50,36,23,0.00,40.00,9,4,18,0.00
2013-11-11,59.0,45.0,35.0,25.0,20.4,14.0,52,38,25,0.00,40.00,8,4,10,0.00
2013-11-12,59.0,47.0,38.0,28.0,20.6,15.0,46,36,24,0.00,40.00,9,5,13,0.00
2013-11-13,51.0,43.0,35.0,27.0,22.5,16.0,59,44,34,0.00,40.00,6,3,16,0.00
2013-11-14,52.0,40.9,31.0,28.0,21.4,14.0,71,47,25,0.00,40.00,11,5,23,0.00
2013-11-15,50.0,41.0,33.0,31.0,21.4,14.0,93,48,31,0.00,40.00,13,8,23,0.02
2013-11-16,40.0,35.3,32.0,32.0,24.4,-99.9,86,67,51,0.00,40.00,15,9,32,0.07
2013-11-17,49.0,40.0,33.0,29.0,24.9,22.0,66,55,44,0.00,40.00,12,7,23,0.02
2013-11-18,50.0,38.9,31.0,28.0,24.9,21.0,72,58,42,0.00,40.00,8,4,12,0.00
2013-11-19,46.0,39.0,33.0,31.0,26.7,21.0,71,61,51,0.00,40.00,7,3,13,0.00
2013-11-20,45.0,38.2,33.0,34.0,30.2,25.0,96,74,54,0.00,40.00,7,3,11,0.15
2013-11-21,40.0,35.1,28.0,38.0,33.8,27.0,97,95,91,0.00,40.00,6,3,12,0.34
2013-11-22,31.0,29.5,27.0,30.0,25.1,21.0,96,84,72,0.00,40.00,9,7,19,0.01
2013-11-23,35.0,32.4,30.0,33.0,30.9,29.0,97,94,88,0.00,40.00,8,4,13,0.46
2013-11-24,36.0,31.9,28.0,33.0,30.4,26.0,98,94,87,0.00,40.00,7,4,16,0.28
2013-11-25,41.0,29.6,21.0,26.0,20.9,18.0,95,72,40,0.00,40.00,6,4,9,0.01
2013-11-26,42.0,31.5,25.0,26.0,20.2,17.0,87,64,45,0.00,40.00,7,5,12,0.01
2013-11-27,41.0,29.8,21.0,30.0,22.7,15.0,94,76,60,0.00,40.00,5,2,10,0.00
2013-11-28,37.0,28.6,19.0,31.0,24.9,17.0,95,86,73,0.00,40.00,6,3,9,0.00
2013-11-29,29.0,25.7,22.0,28.0,24.4,20.0,96,94,93,0.00,40.00,3,1,9,0.01
2013-11-30,30.0,27.2,24.0,29.0,26.2,23.0,96,95,94,0.00,40.00,4,1,5,0.01
2013-12-1,30.0,26.7,25.0,28.0,25.5,24.0,96,95,92,0.00,40.00,5,2,9,0.01
2013-12-2,29.0,26.6,25.0,28.0,25.6,24.0,96,95,94,0.00,40.00,5,2,12,0.01
2013-12-3,39.0,29.9,22.0,31.0,25.1,20.0,95,84,51,0.00,40.00,15,5,28,0.01
2013-12-4,25.0,13.2,-2.0,24.0,9.1,-8.0,94,83,74,0.00,40.00,8,4,12,0.01
2013-12-5,19.0,4.8,-3.0,7.0,-3.4,-10.0,80,69,53,0.00,40.00,8,3,10,0.20
2013-12-6,17.0,6.9,0.0,8.0,-0.2,-7.0,82,72,62,0.00,40.00,5,2,9,0.05
2013-12-7,22.0,17.5,9.0,17.0,11.6,3.0,90,78,65,0.00,40.00,11,4,26,0.01
2013-12-8,19.0,13.4,6.0,16.0,4.3,-6.0,87,67,50,0.00,40.00,17,11,28,0.00
2013-12-9,18.0,5.5,-2.0,0.0,-6.3,-11.0,78,59,31,0.00,40.00,6,4,12,0.04
2013-12-10,20.0,8.4,-3.0,2.0,-4.0,-10.0,70,57,41,0.00,40.00,6,3,11,0.08
2013-12-11,28.0,16.3,7.0,10.0,2.2,-5.0,69,54,42,0.00,40.00,6,3,9,0.13
2013-12-12,36.0,21.5,10.0,15.0,7.9,2.0,72,56,40,0.00,40.00,5,2,7,0.03
2013-12-13,33.0,21.2,14.0,14.0,8.8,4.0,73,59,44,0.00,40.00,8,3,10,0.01
2013-12-14,34.0,23.2,15.0,17.0,12.4,8.0,78,64,48,0.00,40.00,8,4,12,0.00
2013-12-15,39.0,25.8,17.0,19.0,13.3,8.0,72,60,37,0.00,40.00,7,3,10,0.00
2013-12-16,44.0,29.0,20.0,21.0,15.9,12.0,74,59,37,0.00,40.00,9,3,12,0.00
2013-12-17,46.0,32.1,22.0,23.0,16.4,12.0,68,53,37,0.00,40.00,6,2,10,0.00
2013-12-18,41.0,30.2,22.0,22.0,18.1,13.0,73,61,43,0.00,40.00,5,3,12,0.00
2013-12-19,44.0,31.8,25.0,29.0,23.1,18.0,93,71,37,0.00,40.00,9,4,21,0.00
2013-12-20,35.0,28.2,20.0,25.0,20.9,12.0,86,74,58,0.00,40.00,10,4,16,0.00
2013-12-21,30.0,22.4,15.0,21.0,14.1,-99.9,85,73,56,0.00,40.00,7,3,12,0.03
2013-12-22,36.0,23.3,14.0,16.0,11.8,7.0,81,62,35,0.00,40.00,15,7,24,0.02
2013-12-23,40.0,27.4,19.0,22.0,17.8,14.0,81,68,45,0.00,40.00,11,3,18,0.00
2013-12-24,38.0,26.5,20.0,22.0,16.6,7.0,86,67,48,0.00,40.00,16,5,25,0.00
2013-12-25,38.0,24.1,17.0,16.0,4.7,-4.0,58,44,25,0.00,40.00,7,5,10,0.00
2013-12-26,42.0,28.7,16.0,14.0,5.2,-4.0,53,37,28,0.00,40.00,9,4,11,0.00
2013-12-27,47.0,32.1,23.0,21.0,14.4,8.0,66,49,31,0.00,40.00,6,2,8,0.00
2013-12-28,38.0,26.7,22.0,20.0,13.8,-99.9,73,60,45,0.00,40.00,7,3,10,0.00
2013-12-29,34.0,23.2,14.0,15.0,9.2,1.0,82,56,31,0.00,40.00,5,3,10,0.00
2013-12-30,39.0,25.0,16.0,14.0,8.7,3.0,67,51,32,0.00,40.00,7,3,10,0.00
2013-12-31,39.0,29.4,21.0,20.0,15.6,11.0,69,57,38,0.00,40.00,6,2,10,0.00
2014-1-1,42.0,31.7,23.0,19.0,16.2,11.0,71,54,37,0.00,40.00,14,4,27,0.00
2014-1-2,42.0,28.0,20.0,20.0,13.9,9.0,67,56,37,0.00,40.00,6,3,8,0.00